Time;durP1;ratioP1;P1;durP2;ratioP2;P2;SDS_P1;SDS_P2;PMS_P1;PMS_P2;Temp;Humidity;BMP_temperature;BMP_pressure;BME280_temperature;BME280_humidity;BME280_pressure;Samples;Min_cycle;Max_cycle;Signal;HPM_P1;HPM_P2
2022/03/10 00:00:55;;;;;;;1.00;0.85;;;;;;;;;;2080569;28;20484;-65
2022/03/10 00:02:14;;;;;;;1.42;1.17;;;;;;;;;;2077973;28;20033;-64
2022/03/10 00:03:33;;;;;;;1.20;0.90;;;;;;;;;;2078946;28;21035;-66
2022/03/10 00:04:51;;;;;;;2.22;1.25;;;;;;;;;;2078908;28;20038;-65
2022/03/10 00:06:10;;;;;;;1.20;1.10;;;;;;;;;;2077830;28;20018;-66
2022/03/10 00:07:29;;;;;;;1.20;1.10;;;;;;;;;;2079758;28;20434;-65
2022/03/10 00:08:48;;;;;;;1.20;1.05;;;;;;;;;;2078727;28;20104;-65
2022/03/10 00:10:07;;;;;;;1.50;1.30;;;;;;;;;;2077585;28;20037;-65
2022/03/10 00:11:26;;;;;;;3.05;1.70;;;;;;;;;;2077700;28;20026;-65
2022/03/10 00:12:46;;;;;;;0.90;0.90;;;;;;;;;;2079590;28;20033;-65
2022/03/10 00:14:04;;;;;;;5.07;1.40;;;;;;;;;;2080233;28;20034;-66
2022/03/10 00:15:24;;;;;;;2.35;1.25;;;;;;;;;;2076384;28;20029;-64
2022/03/10 00:16:43;;;;;;;1.73;1.30;;;;;;;;;;2078036;28;20029;-66
2022/03/10 00:18:02;;;;;;;3.60;1.25;;;;;;;;;;2079676;28;20029;-65
2022/03/10 00:19:21;;;;;;;1.50;1.30;;;;;;;;;;2079518;28;20411;-66
2022/03/10 00:20:40;;;;;;;1.50;1.40;;;;;;;;;;2077631;28;20049;-67
2022/03/10 00:21:59;;;;;;;1.23;1.13;;;;;;;;;;2077320;28;20037;-66
2022/03/10 00:23:18;;;;;;;1.40;0.82;;;;;;;;;;2077438;28;20026;-66
2022/03/10 00:24:37;;;;;;;1.05;0.80;;;;;;;;;;2079595;28;20025;-66
2022/03/10 00:25:56;;;;;;;1.08;0.98;;;;;;;;;;2078559;28;20037;-66
2022/03/10 00:27:15;;;;;;;0.88;0.88;;;;;;;;;;2077998;28;20471;-67
2022/03/10 00:28:34;;;;;;;1.20;1.10;;;;;;;;;;2075671;28;20052;-66
2022/03/10 00:29:53;;;;;;;1.02;1.02;;;;;;;;;;2077420;28;20802;-66
2022/03/10 00:31:12;;;;;;;1.00;1.00;;;;;;;;;;2080025;28;20038;-66
2022/03/10 00:32:31;;;;;;;1.20;1.08;;;;;;;;;;2078448;28;20403;-66
2022/03/10 00:33:50;;;;;;;0.77;0.70;;;;;;;;;;2078787;28;20029;-66
2022/03/10 00:35:09;;;;;;;1.63;1.10;;;;;;;;;;2077948;28;20484;-66
2022/03/10 00:36:28;;;;;;;1.15;1.05;;;;;;;;;;2078790;28;20037;-66
2022/03/10 00:37:47;;;;;;;0.95;0.85;;;;;;;;;;2079673;28;20100;-66
2022/03/10 00:39:06;;;;;;;1.00;0.90;;;;;;;;;;2078844;28;20018;-65
2022/03/10 00:40:26;;;;;;;0.70;0.70;;;;;;;;;;2077825;28;20073;-67
2022/03/10 00:41:44;;;;;;;1.00;0.93;;;;;;;;;;2078755;28;20037;-64
2022/03/10 00:43:03;;;;;;;1.77;1.13;;;;;;;;;;2079880;28;20029;-66
2022/03/10 00:44:22;;;;;;;1.10;1.00;;;;;;;;;;2079820;28;20492;-66
2022/03/10 00:45:41;;;;;;;1.10;1.00;;;;;;;;;;2076942;28;20029;-66
2022/03/10 00:47:00;;;;;;;1.45;1.20;;;;;;;;;;2078758;28;20026;-66
2022/03/10 00:48:19;;;;;;;1.30;1.20;;;;;;;;;;2079709;28;20030;-66
2022/03/10 00:49:38;;;;;;;2.58;1.30;;;;;;;;;;2079490;28;20065;-67
2022/03/10 00:50:57;;;;;;;2.33;1.20;;;;;;;;;;2079632;28;20033;-66
2022/03/10 00:52:16;;;;;;;1.10;1.00;;;;;;;;;;2078272;28;20030;-67
2022/03/10 00:53:35;;;;;;;0.90;0.90;;;;;;;;;;2079654;28;20476;-66
2022/03/10 00:54:54;;;;;;;0.80;0.80;;;;;;;;;;2079118;28;20033;-66
2022/03/10 00:56:12;;;;;;;1.20;1.10;;;;;;;;;;2078508;28;20057;-66
2022/03/10 00:57:31;;;;;;;1.60;0.93;;;;;;;;;;2079874;28;20408;-67
2022/03/10 00:58:50;;;;;;;0.85;0.80;;;;;;;;;;2079107;28;20410;-67
2022/03/10 01:00:10;;;;;;;0.88;0.60;;;;;;;;;;2077774;28;20041;-68
2022/03/10 01:01:29;;;;;;;3.90;1.00;;;;;;;;;;2078822;28;20391;-68
2022/03/10 01:02:48;;;;;;;0.80;0.80;;;;;;;;;;2078902;28;20018;-67
2022/03/10 01:04:08;;;;;;;1.48;0.98;;;;;;;;;;2078349;28;20419;-67
2022/03/10 01:05:27;;;;;;;0.90;0.90;;;;;;;;;;2079701;28;20160;-66
2022/03/10 01:06:46;;;;;;;1.25;1.00;;;;;;;;;;2078725;28;20057;-67
2022/03/10 01:08:05;;;;;;;1.02;0.98;;;;;;;;;;2079052;28;20407;-66
2022/03/10 01:09:24;;;;;;;2.63;1.00;;;;;;;;;;2080242;28;20025;-66
2022/03/10 01:10:43;;;;;;;1.10;1.00;;;;;;;;;;2078027;28;20037;-66
2022/03/10 01:12:02;;;;;;;1.23;1.13;;;;;;;;;;2076671;28;20092;-65
2022/03/10 01:13:21;;;;;;;2.75;1.10;;;;;;;;;;2078347;28;20399;-66
2022/03/10 01:14:40;;;;;;;1.05;0.95;;;;;;;;;;2079741;28;20037;-66
2022/03/10 01:15:59;;;;;;;1.20;1.10;;;;;;;;;;2077123;28;20033;-66
2022/03/10 01:17:18;;;;;;;1.85;0.80;;;;;;;;;;2077758;28;20029;-66
2022/03/10 01:18:36;;;;;;;1.45;1.10;;;;;;;;;;2080067;28;20488;-66
2022/03/10 01:19:55;;;;;;;1.27;1.17;;;;;;;;;;2077290;28;20029;-66
2022/03/10 01:21:14;;;;;;;1.35;1.23;;;;;;;;;;2081032;28;20017;-66
2022/03/10 01:22:34;;;;;;;1.00;1.00;;;;;;;;;;2079979;28;20622;-65
2022/03/10 01:23:53;;;;;;;1.08;0.98;;;;;;;;;;2080528;28;20045;-66
2022/03/10 01:25:12;;;;;;;1.42;1.10;;;;;;;;;;2076353;28;20057;-66
2022/03/10 01:26:31;;;;;;;1.63;1.23;;;;;;;;;;2077706;28;20030;-66
2022/03/10 01:27:50;;;;;;;1.02;1.00;;;;;;;;;;2077893;28;20504;-66
2022/03/10 01:29:09;;;;;;;1.02;0.95;;;;;;;;;;2076203;28;20109;-66
2022/03/10 01:30:28;;;;;;;1.75;1.00;;;;;;;;;;2079207;28;20057;-66
2022/03/10 01:31:47;;;;;;;1.10;1.00;;;;;;;;;;2078331;28;20112;-66
2022/03/10 01:33:06;;;;;;;1.45;1.10;;;;;;;;;;2080192;28;20029;-68
2022/03/10 01:34:25;;;;;;;1.00;1.00;;;;;;;;;;2080000;28;20034;-66
2022/03/10 01:35:44;;;;;;;1.13;0.98;;;;;;;;;;2079401;28;20037;-66
2022/03/10 01:37:03;;;;;;;1.67;1.02;;;;;;;;;;2080082;28;20026;-66
2022/03/10 01:38:21;;;;;;;1.23;1.13;;;;;;;;;;2081159;28;20026;-65
2022/03/10 01:39:40;;;;;;;2.85;1.05;;;;;;;;;;2081588;28;20045;-66
2022/03/10 01:40:59;;;;;;;0.93;0.93;;;;;;;;;;2080442;28;20423;-65
2022/03/10 01:42:18;;;;;;;2.10;1.15;;;;;;;;;;2078991;28;20033;-66
2022/03/10 01:43:56;;;;;;;1.15;1.10;;;;;;;;;;2080027;28;20034;-66
2022/03/10 01:45:16;;;;;;;0.90;0.90;;;;;;;;;;2081329;28;20025;-66
2022/03/10 01:46:35;;;;;;;0.80;0.80;;;;;;;;;;2080843;28;20401;-67
2022/03/10 01:47:54;;;;;;;1.05;0.95;;;;;;;;;;2079459;28;20026;-66
2022/03/10 01:49:13;;;;;;;0.95;0.88;;;;;;;;;;2080808;28;20061;-67
2022/03/10 01:50:32;;;;;;;1.00;0.90;;;;;;;;;;2079456;28;20458;-66
2022/03/10 01:51:51;;;;;;;1.27;1.05;;;;;;;;;;2077262;28;20397;-66
2022/03/10 01:53:10;;;;;;;0.75;0.75;;;;;;;;;;2078605;28;20029;-66
2022/03/10 01:54:30;;;;;;;1.27;1.10;;;;;;;;;;2081666;28;20073;-66
2022/03/10 01:55:48;;;;;;;1.33;0.93;;;;;;;;;;2081278;28;20026;-66
2022/03/10 01:57:08;;;;;;;0.82;0.82;;;;;;;;;;2079128;28;20042;-66
2022/03/10 01:58:27;;;;;;;1.38;0.93;;;;;;;;;;2078385;28;20033;-66
2022/03/10 01:59:46;;;;;;;1.05;0.93;;;;;;;;;;2080391;28;20037;-67
2022/03/10 02:01:05;;;;;;;0.80;0.80;;;;;;;;;;2077874;28;20419;-66
2022/03/10 02:02:24;;;;;;;0.88;0.88;;;;;;;;;;2077378;28;20403;-67
2022/03/10 02:03:44;;;;;;;1.00;0.90;;;;;;;;;;2080855;28;20022;-66
2022/03/10 02:05:03;;;;;;;1.80;0.95;;;;;;;;;;2080682;28;20026;-67
2022/03/10 02:06:22;;;;;;;1.48;0.93;;;;;;;;;;2078258;28;20537;-66
2022/03/10 02:10:56;;;;;;;1.05;1.00;;;;;;;;;;2079461;28;20026;-67
2022/03/10 02:12:16;;;;;;;1.83;1.00;;;;;;;;;;2076576;28;20511;-66
2022/03/10 02:13:34;;;;;;;1.17;1.00;;;;;;;;;;2081332;28;20045;-67
2022/03/10 02:18:10;;;;;;;1.10;0.98;;;;;;;;;;2080496;28;20038;-67
2022/03/10 02:19:29;;;;;;;1.52;1.00;;;;;;;;;;2079554;28;20061;-68
2022/03/10 02:20:48;;;;;;;1.35;1.00;;;;;;;;;;2077204;28;20423;-67
2022/03/10 02:22:07;;;;;;;1.42;1.00;;;;;;;;;;2077511;28;20041;-66
2022/03/10 02:23:26;;;;;;;2.28;1.13;;;;;;;;;;2079481;28;20018;-67
2022/03/10 02:24:45;;;;;;;0.98;0.98;;;;;;;;;;2081004;28;20038;-67
2022/03/10 02:26:04;;;;;;;2.60;1.00;;;;;;;;;;2079901;28;20018;-67
2022/03/10 02:27:25;;;;;;;0.70;0.70;;;;;;;;;;2074900;28;20403;-67
2022/03/10 02:28:44;;;;;;;1.02;0.85;;;;;;;;;;2081311;28;20085;-67
2022/03/10 02:30:03;;;;;;;1.20;1.10;;;;;;;;;;2080868;28;20535;-67
2022/03/10 02:31:22;;;;;;;0.98;0.98;;;;;;;;;;2081054;28;20037;-67
2022/03/10 02:32:41;;;;;;;1.13;1.05;;;;;;;;;;2078140;28;20401;-67
2022/03/10 02:34:00;;;;;;;1.25;1.15;;;;;;;;;;2078043;28;20025;-67
2022/03/10 02:35:19;;;;;;;1.77;1.00;;;;;;;;;;2079244;28;20038;-66
2022/03/10 02:36:38;;;;;;;0.90;0.90;;;;;;;;;;2080010;28;20080;-68
2022/03/10 02:37:57;;;;;;;0.90;0.82;;;;;;;;;;2077553;28;20057;-66
2022/03/10 02:39:16;;;;;;;1.35;1.15;;;;;;;;;;2079114;28;20053;-67
2022/03/10 02:40:34;;;;;;;1.00;0.85;;;;;;;;;;2077292;28;20419;-66
2022/03/10 02:41:53;;;;;;;0.70;0.70;;;;;;;;;;2079033;28;20116;-67
2022/03/10 02:43:12;;;;;;;0.98;0.70;;;;;;;;;;2081213;28;20060;-67
2022/03/10 02:44:31;;;;;;;0.57;0.57;;;;;;;;;;2081589;28;20057;-67
2022/03/10 02:45:50;;;;;;;1.02;0.90;;;;;;;;;;2078603;28;20429;-68
2022/03/10 02:47:09;;;;;;;2.28;0.90;;;;;;;;;;2079324;28;20022;-67
2022/03/10 02:48:28;;;;;;;0.82;0.77;;;;;;;;;;2080440;28;20034;-67
2022/03/10 02:49:47;;;;;;;0.80;0.80;;;;;;;;;;2080419;28;20112;-66
2022/03/10 02:51:06;;;;;;;0.70;0.70;;;;;;;;;;2079735;28;20029;-66
2022/03/10 02:52:25;;;;;;;0.70;0.70;;;;;;;;;;2077318;28;20038;-68
2022/03/10 02:53:45;;;;;;;0.60;0.60;;;;;;;;;;2080331;28;20391;-66
2022/03/10 02:55:04;;;;;;;0.70;0.63;;;;;;;;;;2079661;28;20034;-66
2022/03/10 02:56:23;;;;;;;0.82;0.60;;;;;;;;;;2079643;28;20062;-66
2022/03/10 02:57:42;;;;;;;1.02;0.77;;;;;;;;;;2077960;28;20528;-66
2022/03/10 02:59:02;;;;;;;0.50;0.50;;;;;;;;;;2079786;28;20045;-67
2022/03/10 03:00:21;;;;;;;0.68;0.68;;;;;;;;;;2078871;28;20484;-67
2022/03/10 03:01:39;;;;;;;1.90;0.85;;;;;;;;;;2078853;28;20030;-68
2022/03/10 03:02:58;;;;;;;1.65;0.80;;;;;;;;;;2078317;28;20029;-69
2022/03/10 03:04:17;;;;;;;0.82;0.80;;;;;;;;;;2078880;28;20026;-66
2022/03/10 03:05:36;;;;;;;0.70;0.63;;;;;;;;;;2079116;28;20034;-66
2022/03/10 03:06:55;;;;;;;0.98;0.52;;;;;;;;;;2079618;28;20021;-66
2022/03/10 03:08:14;;;;;;;0.63;0.50;;;;;;;;;;2078378;28;20029;-66
2022/03/10 03:09:33;;;;;;;1.95;0.65;;;;;;;;;;2079856;28;20026;-66
2022/03/10 03:10:52;;;;;;;0.60;0.60;;;;;;;;;;2080393;28;20025;-68
2022/03/10 03:12:11;;;;;;;0.60;0.60;;;;;;;;;;2078938;28;20065;-66
2022/03/10 03:13:29;;;;;;;1.08;0.60;;;;;;;;;;2077279;28;20029;-66
2022/03/10 03:14:48;;;;;;;0.55;0.52;;;;;;;;;;2080320;28;20033;-66
2022/03/10 03:16:07;;;;;;;1.73;0.57;;;;;;;;;;2081405;28;20431;-66
2022/03/10 03:17:26;;;;;;;0.52;0.52;;;;;;;;;;2078806;28;20112;-66
2022/03/10 03:18:46;;;;;;;2.42;0.70;;;;;;;;;;2078004;28;20034;-67
2022/03/10 03:20:05;;;;;;;0.85;0.57;;;;;;;;;;2079003;28;20022;-67
2022/03/10 03:21:24;;;;;;;0.52;0.50;;;;;;;;;;2079159;28;20093;-65
2022/03/10 03:22:43;;;;;;;0.63;0.60;;;;;;;;;;2079501;28;20022;-67
2022/03/10 03:24:02;;;;;;;1.23;0.68;;;;;;;;;;2079130;28;20613;-66
2022/03/10 03:25:21;;;;;;;0.60;0.60;;;;;;;;;;2080132;28;20021;-67
2022/03/10 03:26:40;;;;;;;0.60;0.60;;;;;;;;;;2076363;28;20501;-67
2022/03/10 03:27:59;;;;;;;0.63;0.63;;;;;;;;;;2078999;28;20472;-67
2022/03/10 03:29:17;;;;;;;1.23;0.70;;;;;;;;;;2078243;28;20037;-67
2022/03/10 03:30:36;;;;;;;0.82;0.70;;;;;;;;;;2080188;28;20054;-65
2022/03/10 03:31:55;;;;;;;2.20;0.93;;;;;;;;;;2077823;28;20083;-66
2022/03/10 03:33:14;;;;;;;2.05;1.02;;;;;;;;;;2076664;28;20033;-66
2022/03/10 03:34:33;;;;;;;0.93;0.82;;;;;;;;;;2080010;28;20111;-66
2022/03/10 03:35:52;;;;;;;0.93;0.93;;;;;;;;;;2079250;28;20116;-66
2022/03/10 03:37:11;;;;;;;0.98;0.73;;;;;;;;;;2079065;28;20092;-67
2022/03/10 03:38:30;;;;;;;0.90;0.90;;;;;;;;;;2076129;28;20029;-67
2022/03/10 03:39:49;;;;;;;0.85;0.85;;;;;;;;;;2078382;28;20038;-67
2022/03/10 03:41:08;;;;;;;2.10;0.80;;;;;;;;;;2080315;28;20038;-67
2022/03/10 03:42:32;;;;;;;0.80;0.80;;;;;;;;;;2078175;28;20590;-67
2022/03/10 03:43:51;;;;;;;0.90;0.90;;;;;;;;;;2077776;28;20029;-67
2022/03/10 03:45:10;;;;;;;0.85;0.85;;;;;;;;;;2080296;28;20037;-66
2022/03/10 03:46:29;;;;;;;1.25;1.15;;;;;;;;;;2078655;28;20037;-66
2022/03/10 03:47:48;;;;;;;1.30;1.20;;;;;;;;;;2079680;28;20478;-66
2022/03/10 03:49:07;;;;;;;1.38;1.20;;;;;;;;;;2077327;28;20034;-68
2022/03/10 03:50:26;;;;;;;1.30;1.20;;;;;;;;;;2080187;28;20029;-66
2022/03/10 03:51:45;;;;;;;1.75;1.20;;;;;;;;;;2079386;28;20033;-65
2022/03/10 03:53:04;;;;;;;1.05;0.95;;;;;;;;;;2078415;28;20057;-66
2022/03/10 03:54:24;;;;;;;1.08;0.98;;;;;;;;;;2078293;28;20029;-66
2022/03/10 03:55:43;;;;;;;1.40;1.30;;;;;;;;;;2078413;28;20376;-66
2022/03/10 03:57:02;;;;;;;2.38;1.10;;;;;;;;;;2079734;28;20049;-66
2022/03/10 03:58:21;;;;;;;1.23;1.13;;;;;;;;;;2080028;28;20029;-66
2022/03/10 03:59:40;;;;;;;1.40;1.20;;;;;;;;;;2079453;28;20041;-66
2022/03/10 04:00:59;;;;;;;2.10;1.20;;;;;;;;;;2078350;28;20021;-65
2022/03/10 04:02:18;;;;;;;1.38;1.17;;;;;;;;;;2078885;28;20030;-66
2022/03/10 04:03:37;;;;;;;1.65;1.10;;;;;;;;;;2074664;28;20049;-66
2022/03/10 04:04:56;;;;;;;8.00;1.45;;;;;;;;;;2079609;28;20025;-66
2022/03/10 04:06:16;;;;;;;1.20;1.10;;;;;;;;;;2079668;28;20038;-66
2022/03/10 04:07:35;;;;;;;0.93;0.93;;;;;;;;;;2078330;28;20073;-66
2022/03/10 04:08:53;;;;;;;1.40;1.30;;;;;;;;;;2077707;28;20038;-66
2022/03/10 04:10:12;;;;;;;2.42;1.23;;;;;;;;;;2080828;28;20021;-65
2022/03/10 04:11:32;;;;;;;2.25;1.20;;;;;;;;;;2080258;28;20041;-66
2022/03/10 04:12:51;;;;;;;1.55;1.20;;;;;;;;;;2079408;28;20021;-67
2022/03/10 04:14:11;;;;;;;1.60;1.50;;;;;;;;;;2078842;28;20018;-66
2022/03/10 04:15:30;;;;;;;2.15;1.83;;;;;;;;;;2079301;28;20057;-66
2022/03/10 04:16:49;;;;;;;1.15;1.05;;;;;;;;;;2079381;28;20558;-66
2022/03/10 04:18:08;;;;;;;0.90;0.90;;;;;;;;;;2077898;28;20057;-66
2022/03/10 04:19:27;;;;;;;2.03;1.35;;;;;;;;;;2079640;28;20030;-66
2022/03/10 04:20:47;;;;;;;2.55;1.27;;;;;;;;;;2078183;28;20033;-66
2022/03/10 04:22:05;;;;;;;2.35;1.23;;;;;;;;;;2078263;28;20038;-68
2022/03/10 04:23:26;;;;;;;1.63;1.20;;;;;;;;;;2078334;28;20097;-64
2022/03/10 04:24:45;;;;;;;1.50;1.40;;;;;;;;;;2079707;28;20030;-66
2022/03/10 04:26:04;;;;;;;1.50;1.33;;;;;;;;;;2080713;28;20029;-67
2022/03/10 04:27:23;;;;;;;1.45;1.20;;;;;;;;;;2077930;28;20029;-67
2022/03/10 04:28:42;;;;;;;3.70;1.73;;;;;;;;;;2080169;28;20030;-67
2022/03/10 04:30:01;;;;;;;1.08;1.08;;;;;;;;;;2079554;28;20116;-66
2022/03/10 04:31:20;;;;;;;1.58;1.15;;;;;;;;;;2079215;28;20253;-66
2022/03/10 04:32:41;;;;;;;2.92;1.40;;;;;;;;;;2078666;28;20037;-66
2022/03/10 04:33:59;;;;;;;1.52;1.20;;;;;;;;;;2078750;28;20033;-67
2022/03/10 04:35:19;;;;;;;1.30;1.20;;;;;;;;;;2079730;28;20974;-67
2022/03/10 04:36:39;;;;;;;2.25;1.60;;;;;;;;;;2080543;28;20137;-66
2022/03/10 04:37:57;;;;;;;3.28;1.27;;;;;;;;;;2078912;28;20021;-65
2022/03/10 04:39:17;;;;;;;2.95;1.50;;;;;;;;;;2078244;28;20499;-66
2022/03/10 04:40:37;;;;;;;2.40;1.60;;;;;;;;;;2079834;28;20033;-65
2022/03/10 04:41:55;;;;;;;1.50;1.15;;;;;;;;;;2078034;28;20014;-67
2022/03/10 04:43:15;;;;;;;1.52;1.42;;;;;;;;;;2079784;28;20120;-66
2022/03/10 04:44:33;;;;;;;2.92;1.65;;;;;;;;;;2078063;28;20038;-66
2022/03/10 04:45:52;;;;;;;2.70;1.17;;;;;;;;;;2078795;28;20061;-66
2022/03/10 04:47:11;;;;;;;1.33;1.23;;;;;;;;;;2079306;28;20046;-68
2022/03/10 04:48:30;;;;;;;2.33;1.25;;;;;;;;;;2079006;28;20038;-66
2022/03/10 04:49:49;;;;;;;1.30;1.20;;;;;;;;;;2078567;28;20022;-67
2022/03/10 04:51:08;;;;;;;1.38;1.20;;;;;;;;;;2079868;28;20037;-66
2022/03/10 04:52:27;;;;;;;2.17;1.60;;;;;;;;;;2079559;28;20104;-66
2022/03/10 04:53:46;;;;;;;1.70;1.60;;;;;;;;;;2080747;28;20033;-65
2022/03/10 04:55:06;;;;;;;1.52;1.38;;;;;;;;;;2080092;28;20038;-66
2022/03/10 04:56:25;;;;;;;1.73;1.30;;;;;;;;;;2081523;28;20041;-66
2022/03/10 04:57:44;;;;;;;1.30;1.20;;;;;;;;;;2080380;28;20402;-66
2022/03/10 04:59:03;;;;;;;1.70;1.60;;;;;;;;;;2081831;28;20033;-68
2022/03/10 05:00:22;;;;;;;1.83;1.45;;;;;;;;;;2080281;28;20037;-66
2022/03/10 05:01:41;;;;;;;2.13;1.63;;;;;;;;;;2081287;28;20435;-66
2022/03/10 05:03:00;;;;;;;1.42;1.33;;;;;;;;;;2077708;28;20029;-67
2022/03/10 05:04:19;;;;;;;1.40;1.30;;;;;;;;;;2079274;28;20033;-66
2022/03/10 05:05:38;;;;;;;1.60;1.50;;;;;;;;;;2081081;28;20500;-66
2022/03/10 05:06:57;;;;;;;2.55;1.42;;;;;;;;;;2081120;28;20029;-66
2022/03/10 05:08:16;;;;;;;1.58;1.48;;;;;;;;;;2079133;28;20033;-66
2022/03/10 05:09:35;;;;;;;3.03;1.60;;;;;;;;;;2078681;28;20108;-66
2022/03/10 05:10:53;;;;;;;1.50;1.40;;;;;;;;;;2080191;28;20041;-65
2022/03/10 05:12:12;;;;;;;3.92;1.63;;;;;;;;;;2080149;28;20037;-66
2022/03/10 05:13:31;;;;;;;1.58;1.33;;;;;;;;;;2080019;28;20049;-67
2022/03/10 05:14:50;;;;;;;2.38;1.90;;;;;;;;;;2078733;28;20030;-68
2022/03/10 05:16:10;;;;;;;1.85;1.58;;;;;;;;;;2078497;28;20034;-65
2022/03/10 05:17:29;;;;;;;3.45;1.85;;;;;;;;;;2080260;28;20033;-66
2022/03/10 05:18:48;;;;;;;1.40;1.30;;;;;;;;;;2081286;28;20029;-66
2022/03/10 05:20:07;;;;;;;1.17;0.93;;;;;;;;;;2080169;28;20037;-65
2022/03/10 05:21:26;;;;;;;2.88;1.35;;;;;;;;;;2081004;28;20112;-65
2022/03/10 05:22:52;;;;;;;2.42;1.80;;;;;;;;;;2080144;28;20029;-67
2022/03/10 05:24:12;;;;;;;1.55;1.45;;;;;;;;;;2080063;28;20025;-66
2022/03/10 05:25:39;;;;;;;4.70;1.40;;;;;;;;;;2080126;28;20029;-66
2022/03/10 05:26:58;;;;;;;3.13;1.33;;;;;;;;;;2080341;28;20018;-69
2022/03/10 05:28:17;;;;;;;3.08;1.77;;;;;;;;;;2078807;28;20141;-67
2022/03/10 05:29:40;;;;;;;2.15;1.50;;;;;;;;;;2079654;28;20495;-67
2022/03/10 05:30:59;;;;;;;1.50;1.40;;;;;;;;;;2080271;28;20424;-64
2022/03/10 05:32:19;;;;;;;2.35;1.45;;;;;;;;;;2079890;28;20029;-66
2022/03/10 05:33:37;;;;;;;3.33;1.80;;;;;;;;;;2080126;28;20037;-66
2022/03/10 05:34:56;;;;;;;2.33;1.60;;;;;;;;;;2077522;28;20021;-66
2022/03/10 05:36:16;;;;;;;1.70;1.60;;;;;;;;;;2081049;28;20025;-67
2022/03/10 05:37:35;;;;;;;1.65;1.45;;;;;;;;;;2078198;28;20021;-66
2022/03/10 05:38:54;;;;;;;1.48;1.38;;;;;;;;;;2077096;28;20100;-66
2022/03/10 05:40:15;;;;;;;1.30;1.30;;;;;;;;;;2079098;28;20061;-66
2022/03/10 05:41:34;;;;;;;3.83;1.50;;;;;;;;;;2076854;28;20029;-66
2022/03/10 05:42:53;;;;;;;2.95;1.30;;;;;;;;;;2079604;28;20049;-65
2022/03/10 05:44:12;;;;;;;3.10;1.30;;;;;;;;;;2079976;28;20033;-66
2022/03/10 05:45:31;;;;;;;1.63;1.30;;;;;;;;;;2080094;28;20065;-67
2022/03/10 05:46:50;;;;;;;1.67;1.20;;;;;;;;;;2079095;28;20029;-66
2022/03/10 05:48:09;;;;;;;1.95;0.90;;;;;;;;;;2080530;28;20038;-66
2022/03/10 05:49:28;;;;;;;1.40;1.30;;;;;;;;;;2080950;28;20021;-66
2022/03/10 05:50:47;;;;;;;1.13;1.02;;;;;;;;;;2080698;28;20049;-66
2022/03/10 05:52:06;;;;;;;1.67;1.00;;;;;;;;;;2079966;28;20038;-66
2022/03/10 05:53:25;;;;;;;4.30;0.90;;;;;;;;;;2078275;28;20037;-66
2022/03/10 05:54:44;;;;;;;0.93;0.93;;;;;;;;;;2081009;28;20034;-67
2022/03/10 05:56:03;;;;;;;1.30;0.90;;;;;;;;;;2069787;28;20087;-66
2022/03/10 05:57:22;;;;;;;1.27;0.85;;;;;;;;;;2077231;28;20037;-65
2022/03/10 05:58:41;;;;;;;1.50;1.02;;;;;;;;;;2080727;28;20037;-67
2022/03/10 06:00:00;;;;;;;1.20;1.10;;;;;;;;;;2081702;28;20211;-67
2022/03/10 06:01:19;;;;;;;1.02;1.00;;;;;;;;;;2078141;28;20454;-66
2022/03/10 06:02:38;;;;;;;1.20;1.10;;;;;;;;;;2078902;28;20416;-66
2022/03/10 06:03:57;;;;;;;1.02;0.93;;;;;;;;;;2078302;28;20038;-66
2022/03/10 06:05:17;;;;;;;1.65;0.98;;;;;;;;;;2077054;28;20021;-66
2022/03/10 06:06:36;;;;;;;2.33;1.10;;;;;;;;;;2080128;28;20519;-65
2022/03/10 06:07:54;;;;;;;1.50;0.90;;;;;;;;;;2080170;28;20026;-65
2022/03/10 06:09:13;;;;;;;1.85;1.10;;;;;;;;;;2077000;28;20029;-65
2022/03/10 06:10:32;;;;;;;1.23;1.00;;;;;;;;;;2078457;28;20037;-66
2022/03/10 06:11:51;;;;;;;1.42;1.10;;;;;;;;;;2078750;28;20112;-66
2022/03/10 06:13:10;;;;;;;1.20;1.10;;;;;;;;;;2081101;28;20050;-66
2022/03/10 06:14:29;;;;;;;2.22;1.33;;;;;;;;;;2081265;28;20496;-66
2022/03/10 06:15:48;;;;;;;2.90;1.30;;;;;;;;;;2079787;28;20041;-66
2022/03/10 06:17:07;;;;;;;1.08;0.93;;;;;;;;;;2080655;28;20034;-66
2022/03/10 06:18:26;;;;;;;2.53;0.95;;;;;;;;;;2075096;28;20046;-66
2022/03/10 06:19:45;;;;;;;1.10;1.00;;;;;;;;;;2077814;28;20065;-65
2022/03/10 06:21:04;;;;;;;1.85;0.90;;;;;;;;;;2076298;28;20053;-66
2022/03/10 06:22:24;;;;;;;0.80;0.63;;;;;;;;;;2078673;28;20029;-66
2022/03/10 06:23:46;;;;;;;3.22;0.90;;;;;;;;;;2078906;28;20026;-66
2022/03/10 06:25:06;;;;;;;1.05;0.98;;;;;;;;;;2078349;28;20018;-68
2022/03/10 06:26:25;;;;;;;2.38;1.00;;;;;;;;;;2080089;28;20112;-68
2022/03/10 06:27:44;;;;;;;1.55;0.90;;;;;;;;;;2080410;28;20053;-67
2022/03/10 06:29:04;;;;;;;1.10;1.00;;;;;;;;;;2080846;28;20400;-65
2022/03/10 06:30:22;;;;;;;0.98;0.90;;;;;;;;;;2078868;28;20475;-66
2022/03/10 06:31:42;;;;;;;2.95;1.15;;;;;;;;;;2073007;28;20034;-65
2022/03/10 06:33:01;;;;;;;2.25;0.90;;;;;;;;;;2076779;28;20029;-66
2022/03/10 06:34:19;;;;;;;2.65;0.90;;;;;;;;;;2079965;28;20029;-66
2022/03/10 06:35:39;;;;;;;1.77;1.00;;;;;;;;;;2078557;28;20120;-66
2022/03/10 06:36:58;;;;;;;5.20;1.15;;;;;;;;;;2076646;28;20029;-66
2022/03/10 06:38:17;;;;;;;1.17;1.08;;;;;;;;;;2076885;28;20038;-66
2022/03/10 06:39:36;;;;;;;2.92;1.23;;;;;;;;;;2079049;28;20395;-66
2022/03/10 06:40:55;;;;;;;2.05;0.80;;;;;;;;;;2077530;28;20564;-67
2022/03/10 06:42:14;;;;;;;1.02;1.02;;;;;;;;;;2078454;28;20041;-67
2022/03/10 06:43:33;;;;;;;1.08;0.80;;;;;;;;;;2078215;28;20195;-67
2022/03/10 06:44:51;;;;;;;1.13;0.90;;;;;;;;;;2073980;28;20492;-66
2022/03/10 06:46:10;;;;;;;1.05;0.95;;;;;;;;;;2079006;28;20029;-66
2022/03/10 06:47:29;;;;;;;2.13;0.90;;;;;;;;;;2077747;28;20029;-66
2022/03/10 06:48:48;;;;;;;1.35;1.13;;;;;;;;;;2078446;28;20484;-66
2022/03/10 06:50:07;;;;;;;5.60;1.30;;;;;;;;;;2078902;28;20025;-66
2022/03/10 06:51:26;;;;;;;1.85;1.73;;;;;;;;;;2076636;28;20046;-66
2022/03/10 06:52:45;;;;;;;2.83;1.30;;;;;;;;;;2076112;28;20357;-67
2022/03/10 06:54:04;;;;;;;2.88;1.17;;;;;;;;;;2078394;28;20116;-66
2022/03/10 06:55:24;;;;;;;2.55;1.20;;;;;;;;;;2080808;28;20034;-66
2022/03/10 06:56:43;;;;;;;0.73;0.73;;;;;;;;;;2081067;28;20030;-68
2022/03/10 06:58:02;;;;;;;1.50;0.82;;;;;;;;;;2079953;28;20026;-67
2022/03/10 06:59:21;;;;;;;2.10;1.20;;;;;;;;;;2079141;28;20026;-67
2022/03/10 07:00:40;;;;;;;6.03;0.90;;;;;;;;;;2080600;28;20034;-67
2022/03/10 07:01:59;;;;;;;1.77;0.82;;;;;;;;;;2080103;28;20037;-67
2022/03/10 07:03:21;;;;;;;1.13;1.00;;;;;;;;;;2080761;28;20034;-66
2022/03/10 07:04:40;;;;;;;1.67;1.05;;;;;;;;;;2078055;28;20057;-67
2022/03/10 07:05:59;;;;;;;1.25;0.90;;;;;;;;;;2080251;28;20029;-67
2022/03/10 07:07:18;;;;;;;1.63;1.33;;;;;;;;;;2078108;28;20388;-67
2022/03/10 07:08:37;;;;;;;1.35;1.00;;;;;;;;;;2080442;28;20388;-66
2022/03/10 07:09:56;;;;;;;2.00;1.17;;;;;;;;;;2081177;28;20034;-66
2022/03/10 07:11:16;;;;;;;2.10;1.08;;;;;;;;;;2080139;28;20037;-67
2022/03/10 07:12:35;;;;;;;1.50;0.85;;;;;;;;;;2078333;28;20064;-66
2022/03/10 07:13:54;;;;;;;9.80;1.40;;;;;;;;;;2076536;28;20026;-69
2022/03/10 07:15:14;;;;;;;3.38;0.82;;;;;;;;;;2079922;28;20488;-67
2022/03/10 07:16:33;;;;;;;2.22;1.17;;;;;;;;;;2080815;28;20451;-67
2022/03/10 07:17:52;;;;;;;1.00;0.93;;;;;;;;;;2080174;28;20041;-68
2022/03/10 07:19:12;;;;;;;1.88;1.00;;;;;;;;;;2079008;28;20037;-67
2022/03/10 07:20:32;;;;;;;4.13;1.60;;;;;;;;;;2078647;28;20022;-68
2022/03/10 07:21:51;;;;;;;1.58;1.20;;;;;;;;;;2078863;28;20033;-67
2022/03/10 07:23:10;;;;;;;0.90;0.90;;;;;;;;;;2079948;28;20112;-70
2022/03/10 07:24:30;;;;;;;1.50;1.20;;;;;;;;;;2079952;28;20029;-67
2022/03/10 07:25:50;;;;;;;4.30;1.52;;;;;;;;;;2079533;28;20040;-66
2022/03/10 07:27:09;;;;;;;1.75;1.08;;;;;;;;;;2077997;28;20494;-66
2022/03/10 07:28:28;;;;;;;1.98;1.30;;;;;;;;;;2080244;28;20034;-66
2022/03/10 07:29:47;;;;;;;4.20;1.20;;;;;;;;;;2080241;28;20045;-67
2022/03/10 07:31:06;;;;;;;0.95;0.90;;;;;;;;;;2081045;28;20033;-66
2022/03/10 07:32:26;;;;;;;1.10;0.93;;;;;;;;;;2078850;28;20025;-66
2022/03/10 07:33:45;;;;;;;1.23;0.90;;;;;;;;;;2079004;28;20025;-66
2022/03/10 07:35:04;;;;;;;3.08;1.15;;;;;;;;;;2078033;28;20021;-68
2022/03/10 07:36:23;;;;;;;3.63;1.20;;;;;;;;;;2076334;28;20478;-66
2022/03/10 07:37:42;;;;;;;2.47;1.15;;;;;;;;;;2079856;28;20509;-66
2022/03/10 07:39:01;;;;;;;5.18;1.17;;;;;;;;;;2078808;28;20041;-67
2022/03/10 07:40:20;;;;;;;2.83;1.27;;;;;;;;;;2079920;28;20061;-66
2022/03/10 07:41:39;;;;;;;2.35;1.00;;;;;;;;;;2079676;28;20699;-66
2022/03/10 07:42:58;;;;;;;1.98;0.90;;;;;;;;;;2079791;28;20029;-66
2022/03/10 07:44:17;;;;;;;2.85;1.30;;;;;;;;;;2079326;28;20112;-67
2022/03/10 07:45:36;;;;;;;2.08;0.73;;;;;;;;;;2079338;28;20033;-68
2022/03/10 07:46:55;;;;;;;2.10;1.17;;;;;;;;;;2080097;28;20021;-68
2022/03/10 07:48:14;;;;;;;1.60;1.50;;;;;;;;;;2079178;28;20439;-66
2022/03/10 07:49:33;;;;;;;1.40;1.30;;;;;;;;;;2080038;28;20030;-66
2022/03/10 07:50:53;;;;;;;1.20;1.10;;;;;;;;;;2081076;28;20045;-66
2022/03/10 07:52:12;;;;;;;1.40;1.30;;;;;;;;;;2079949;28;20488;-66
2022/03/10 07:53:32;;;;;;;1.67;1.40;;;;;;;;;;2078661;28;20030;-66
2022/03/10 07:54:51;;;;;;;1.20;1.10;;;;;;;;;;2079332;28;20113;-66
2022/03/10 07:56:09;;;;;;;1.48;0.90;;;;;;;;;;2079467;28;20041;-66
2022/03/10 07:57:28;;;;;;;1.75;1.10;;;;;;;;;;2079207;28;20037;-66
2022/03/10 07:58:47;;;;;;;1.05;0.95;;;;;;;;;;2080287;28;20034;-66
2022/03/10 08:00:07;;;;;;;1.20;1.10;;;;;;;;;;2079565;28;20057;-66
2022/03/10 08:01:26;;;;;;;3.05;1.30;;;;;;;;;;2078539;28;20484;-66